Time;durP1;ratioP1;P1;durP2;ratioP2;P2;SDS_P1;SDS_P2;PMS_P1;PMS_P2;Temp;Humidity;BMP_temperature;BMP_pressure;BME280_temperature;BME280_humidity;BME280_pressure;Samples;Min_cycle;Max_cycle;Signal;HPM_P1;HPM_P2
2021/10/17 00:01:24;;;;;;;30.50;20.57;;;11.20;99.90;;;;;;5005738;28;20510;-62
2021/10/17 00:03:49;;;;;;;39.07;23.17;;;11.50;99.90;;;;;;5004291;28;20184;-61
2021/10/17 00:06:16;;;;;;;44.97;24.30;;;11.10;99.90;;;;;;5005853;28;20217;-62
2021/10/17 00:08:42;;;;;;;47.03;24.27;;;11.00;99.90;;;;;;5004015;28;20753;-61
2021/10/17 00:11:08;;;;;;;39.30;23.93;;;11.00;99.90;;;;;;5004278;28;21463;-62
2021/10/17 00:13:33;;;;;;;39.97;23.57;;;11.10;99.90;;;;;;5004325;28;20247;-62
2021/10/17 00:15:59;;;;;;;38.23;22.37;;;11.00;99.90;;;;;;5003228;28;20241;-62
2021/10/17 00:18:24;;;;;;;35.80;22.47;;;10.70;99.90;;;;;;5001529;28;20372;-62
2021/10/17 00:20:53;;;;;;;48.83;26.13;;;10.80;99.90;;;;;;5002767;28;20201;-62
2021/10/17 00:23:19;;;;;;;41.27;24.60;;;10.80;99.90;;;;;;5002090;28;20588;-62
2021/10/17 00:25:44;;;;;;;38.40;21.97;;;11.10;99.90;;;;;;5002258;28;20540;-62
2021/10/17 00:28:10;;;;;;;39.40;23.30;;;11.40;99.90;;;;;;5003517;28;20221;-62
2021/10/17 00:30:36;;;;;;;37.90;21.97;;;11.50;99.90;;;;;;5002084;28;20216;-62
2021/10/17 00:33:02;;;;;;;34.03;22.97;;;11.60;99.90;;;;;;5001723;28;20691;-62
2021/10/17 00:35:27;;;;;;;34.57;22.90;;;11.50;99.90;;;;;;4999927;28;20479;-62
2021/10/17 00:37:53;;;;;;;32.57;21.50;;;11.40;99.90;;;;;;5004262;28;20475;-62
2021/10/17 00:40:21;;;;;;;31.93;21.13;;;11.10;99.90;;;;;;5002210;28;20205;-62
2021/10/17 00:42:49;;;;;;;35.77;22.80;;;11.10;99.90;;;;;;5004535;28;20276;-62
2021/10/17 00:45:17;;;;;;;37.33;22.60;;;11.20;99.90;;;;;;4988818;28;20447;-62
2021/10/17 00:47:43;;;;;;;43.17;23.57;;;11.20;99.90;;;;;;5001001;28;20837;-62
2021/10/17 00:50:09;;;;;;;30.87;22.03;;;11.10;99.90;;;;;;5002336;28;20481;-61
2021/10/17 00:52:42;;;;;;;38.07;22.87;;;11.10;99.90;;;;;;5002180;28;20220;-61
2021/10/17 00:55:11;;;;;;;33.80;20.17;;;11.30;99.90;;;;;;4973157;28;20448;-62
2021/10/17 00:57:39;;;;;;;34.47;21.70;;;11.50;99.90;;;;;;4999401;28;21128;-62
2021/10/17 01:00:05;;;;;;;30.63;20.97;;;11.50;99.90;;;;;;4998519;28;20542;-61
2021/10/17 01:02:31;;;;;;;40.47;20.37;;;11.60;99.90;;;;;;5004918;28;20460;-61
2021/10/17 01:04:58;;;;;;;37.70;21.60;;;11.50;99.90;;;;;;5003440;28;20841;-62
2021/10/17 01:07:24;;;;;;;33.57;21.27;;;11.50;99.90;;;;;;5001139;28;20742;-61
2021/10/17 01:09:50;;;;;;;33.40;20.37;;;11.80;99.90;;;;;;5002709;28;20488;-62
2021/10/17 01:12:15;;;;;;;32.13;20.17;;;11.80;99.90;;;;;;4999976;28;20282;-62
2021/10/17 01:14:41;;;;;;;29.93;20.93;;;11.60;99.90;;;;;;5001697;28;20228;-62
2021/10/17 01:17:06;;;;;;;30.97;22.80;;;11.60;99.90;;;;;;5002637;28;20577;-62
2021/10/17 01:19:32;;;;;;;36.87;24.13;;;11.30;99.90;;;;;;5002644;28;20214;-62
2021/10/17 01:21:58;;;;;;;42.67;25.17;;;11.40;99.90;;;;;;5003369;28;20201;-61
2021/10/17 01:24:24;;;;;;;35.80;22.93;;;11.40;99.90;;;;;;5000410;28;20209;-62
2021/10/17 01:26:49;;;;;;;31.33;21.60;;;11.60;99.90;;;;;;5002163;28;20219;-62
2021/10/17 01:29:15;;;;;;;39.17;23.27;;;11.30;99.90;;;;;;5002559;28;20571;-62
2021/10/17 01:31:47;;;;;;;43.10;25.53;;;11.20;99.90;;;;;;5000467;28;20268;-60
2021/10/17 01:34:14;;;;;;;40.87;24.33;;;11.30;99.90;;;;;;4985020;28;20185;-61
2021/10/17 01:36:40;;;;;;;38.20;21.93;;;11.30;99.90;;;;;;5001120;28;20464;-61
2021/10/17 01:39:10;;;;;;;37.23;24.07;;;11.40;99.90;;;;;;5003204;28;20479;-62
2021/10/17 01:41:36;;;;;;;36.47;21.60;;;11.40;99.90;;;;;;5003662;28;20447;-62
2021/10/17 01:44:07;;;;;;;40.60;24.30;;;11.30;99.90;;;;;;5003274;28;20439;-61
2021/10/17 01:46:35;;;;;;;38.17;23.03;;;11.20;99.90;;;;;;5001807;28;20459;-62
2021/10/17 01:49:00;;;;;;;35.80;23.60;;;11.20;99.90;;;;;;5002525;28;20547;-62
2021/10/17 01:51:26;;;;;;;37.90;24.17;;;11.40;99.90;;;;;;5004378;28;20598;-62
2021/10/17 01:53:51;;;;;;;39.80;22.97;;;11.40;99.90;;;;;;5003614;28;20231;-62
2021/10/17 01:56:17;;;;;;;45.53;25.60;;;11.50;99.90;;;;;;5003867;28;20224;-62
2021/10/17 01:58:43;;;;;;;44.90;25.00;;;11.40;99.90;;;;;;5001864;28;20217;-62
2021/10/17 02:01:11;;;;;;;39.67;25.47;;;11.20;99.90;;;;;;5001196;28;20245;-62
2021/10/17 02:03:37;;;;;;;37.97;23.47;;;11.20;99.90;;;;;;5001598;28;20197;-62
2021/10/17 02:06:03;;;;;;;39.33;23.17;;;11.30;99.90;;;;;;5000329;28;20459;-61
2021/10/17 02:08:29;;;;;;;37.80;23.53;;;11.30;99.90;;;;;;5001796;28;20687;-62
2021/10/17 02:10:55;;;;;;;45.97;25.10;;;11.30;99.90;;;;;;5001743;28;20228;-62
2021/10/17 02:13:21;;;;;;;41.03;23.90;;;11.20;99.90;;;;;;5003032;28;20813;-62
2021/10/17 02:15:46;;;;;;;43.50;25.40;;;11.30;99.90;;;;;;5001570;28;20447;-62
2021/10/17 02:18:12;;;;;;;43.47;25.80;;;11.30;99.90;;;;;;5002129;28;20291;-62
2021/10/17 02:20:37;;;;;;;39.87;23.30;;;11.20;99.90;;;;;;5008070;28;20200;-62
2021/10/17 02:23:06;;;;;;;44.80;25.70;;;11.20;99.90;;;;;;5004287;28;20193;-62
2021/10/17 02:25:32;;;;;;;39.97;23.33;;;11.40;99.90;;;;;;5008134;28;20751;-62
2021/10/17 02:27:58;;;;;;;39.50;24.17;;;11.40;99.90;;;;;;5003385;28;21056;-62
2021/10/17 02:30:25;;;;;;;39.57;24.27;;;11.30;99.90;;;;;;5007060;28;20479;-62
2021/10/17 02:32:51;;;;;;;34.63;22.20;;;11.30;99.90;;;;;;5006347;28;20444;-62
2021/10/17 02:35:16;;;;;;;41.33;23.63;;;11.10;99.90;;;;;;5005357;28;20452;-62
2021/10/17 02:37:42;;;;;;;42.90;25.50;;;11.20;99.90;;;;;;4990408;28;20539;-61
2021/10/17 02:40:09;;;;;;;38.00;23.47;;;11.20;99.90;;;;;;5003297;28;20231;-62
2021/10/17 02:42:35;;;;;;;39.13;23.87;;;11.20;99.90;;;;;;5007227;28;20443;-62
2021/10/17 02:45:01;;;;;;;42.57;24.33;;;11.30;99.90;;;;;;5007082;28;20446;-63
2021/10/17 02:47:27;;;;;;;40.90;26.13;;;11.20;99.90;;;;;;5002549;28;20880;-61
2021/10/17 02:49:53;;;;;;;39.90;24.57;;;11.30;99.90;;;;;;5010968;28;20213;-61
2021/10/17 02:52:18;;;;;;;41.17;24.13;;;11.30;99.90;;;;;;5005587;28;20534;-61
2021/10/17 02:54:44;;;;;;;41.60;24.53;;;11.30;99.90;;;;;;5002941;28;20288;-61
2021/10/17 02:57:10;;;;;;;38.80;23.83;;;11.30;99.90;;;;;;5002967;28;20217;-62
2021/10/17 02:59:36;;;;;;;43.33;24.63;;;11.20;99.90;;;;;;4988859;28;20229;-62
2021/10/17 03:02:03;;;;;;;47.10;25.00;;;11.10;99.90;;;;;;5005005;28;20189;-62
2021/10/17 03:04:28;;;;;;;39.93;23.50;;;11.30;99.90;;;;;;5002175;28;20538;-63
2021/10/17 03:06:54;;;;;;;47.77;25.37;;;11.30;99.90;;;;;;5003441;28;20936;-61
2021/10/17 03:09:20;;;;;;;37.27;23.03;;;11.40;99.90;;;;;;5003588;28;20232;-62
2021/10/17 03:11:45;;;;;;;43.30;23.37;;;11.40;99.90;;;;;;5005002;28;20675;-62
2021/10/17 03:14:11;;;;;;;42.73;23.27;;;11.40;99.90;;;;;;5003417;28;20256;-62
2021/10/17 03:16:36;;;;;;;41.60;23.47;;;11.20;99.90;;;;;;5005906;28;20200;-62
2021/10/17 03:19:02;;;;;;;43.33;25.77;;;11.10;99.90;;;;;;5003604;28;20216;-62
2021/10/17 03:21:28;;;;;;;46.23;26.47;;;11.30;99.90;;;;;;5003799;28;20190;-63
2021/10/17 03:23:53;;;;;;;47.20;25.17;;;11.20;99.90;;;;;;5002654;28;20748;-61
2021/10/17 03:26:19;;;;;;;43.77;25.30;;;11.20;99.90;;;;;;5005268;28;20243;-62
2021/10/17 03:28:45;;;;;;;42.67;23.50;;;11.20;99.90;;;;;;5003880;28;20248;-61
2021/10/17 03:31:11;;;;;;;41.47;23.53;;;11.30;99.90;;;;;;5003344;28;20224;-61
2021/10/17 03:33:36;;;;;;;44.63;23.80;;;11.10;99.90;;;;;;5006114;28;20216;-61
2021/10/17 03:36:04;;;;;;;50.47;25.23;;;11.20;99.90;;;;;;4999221;28;20719;-62
2021/10/17 03:38:30;;;;;;;41.00;24.17;;;11.30;99.90;;;;;;5002144;28;20205;-62
2021/10/17 03:40:56;;;;;;;41.50;24.53;;;11.30;99.90;;;;;;5002980;28;20444;-62
2021/10/17 03:43:21;;;;;;;45.37;26.87;;;11.30;99.90;;;;;;5005092;28;20451;-62
2021/10/17 03:45:47;;;;;;;41.33;24.47;;;11.30;99.90;;;;;;5006234;28;20193;-62
2021/10/17 03:48:13;;;;;;;48.73;26.70;;;11.10;99.90;;;;;;4987473;28;20213;-62
2021/10/17 03:50:39;;;;;;;43.77;23.87;;;11.30;99.90;;;;;;5007178;28;20263;-62
2021/10/17 03:53:04;;;;;;;41.37;23.27;;;11.40;99.90;;;;;;5005279;28;20200;-62
2021/10/17 03:55:30;;;;;;;44.83;23.57;;;11.50;99.90;;;;;;5005333;28;20570;-62
2021/10/17 03:57:56;;;;;;;44.47;23.00;;;11.40;99.90;;;;;;5004053;28;20292;-62
2021/10/17 04:00:22;;;;;;;42.30;23.97;;;11.40;99.90;;;;;;5005196;28;20645;-62
2021/10/17 04:02:48;;;;;;;48.83;26.33;;;11.50;99.90;;;;;;5004285;28;20288;-62
2021/10/17 04:05:14;;;;;;;45.20;26.93;;;11.60;99.90;;;;;;4986624;28;20825;-62
2021/10/17 04:07:40;;;;;;;46.30;25.87;;;11.50;99.90;;;;;;5002039;28;20468;-62
2021/10/17 04:10:07;;;;;;;44.00;24.57;;;11.50;99.90;;;;;;5002880;28;20467;-62
2021/10/17 04:12:33;;;;;;;53.10;26.30;;;11.40;99.90;;;;;;5003994;28;20791;-62
2021/10/17 04:14:59;;;;;;;41.70;23.60;;;11.50;99.90;;;;;;5005528;28;20451;-60
2021/10/17 04:17:25;;;;;;;41.23;25.67;;;11.50;99.90;;;;;;5002902;28;20177;-61
2021/10/17 04:19:51;;;;;;;42.90;24.93;;;11.60;99.90;;;;;;5003052;28;20534;-61
2021/10/17 04:22:18;;;;;;;47.43;25.13;;;11.40;99.90;;;;;;5003944;28;20467;-62
2021/10/17 04:24:44;;;;;;;42.37;23.83;;;11.40;99.90;;;;;;5002447;28;20459;-62
2021/10/17 04:27:10;;;;;;;44.03;26.17;;;11.40;99.90;;;;;;4999737;28;20994;-61
2021/10/17 04:29:37;;;;;;;40.90;24.67;;;11.50;99.90;;;;;;5004451;28;20299;-61
2021/10/17 04:32:04;;;;;;;44.17;25.90;;;11.70;99.90;;;;;;5002831;28;20448;-62
2021/10/17 04:34:33;;;;;;;41.23;23.83;;;11.70;99.90;;;;;;5000926;28;20444;-62
2021/10/17 04:36:59;;;;;;;41.50;23.90;;;11.70;99.90;;;;;;5002852;28;20479;-62
2021/10/17 04:39:25;;;;;;;41.50;25.53;;;11.80;99.90;;;;;;5002383;28;20466;-62
2021/10/17 04:41:52;;;;;;;46.13;26.00;;;11.70;99.90;;;;;;5002589;28;20493;-62
2021/10/17 04:44:17;;;;;;;44.47;25.10;;;11.60;99.90;;;;;;5004568;28;20578;-61
2021/10/17 04:46:43;;;;;;;48.07;27.27;;;11.40;99.90;;;;;;5002425;28;21013;-61
2021/10/17 04:49:08;;;;;;;46.63;26.20;;;11.40;99.90;;;;;;5001875;28;20221;-62
2021/10/17 04:51:34;;;;;;;47.70;27.53;;;11.40;99.90;;;;;;5001073;28;20679;-62
2021/10/17 04:54:00;;;;;;;47.27;25.57;;;11.30;99.90;;;;;;5004710;28;20197;-62
2021/10/17 04:56:26;;;;;;;45.60;25.87;;;11.20;99.90;;;;;;5002142;28;20495;-62
2021/10/17 04:58:51;;;;;;;46.80;25.97;;;11.30;99.90;;;;;;5002994;28;20671;-62
2021/10/17 05:01:17;;;;;;;46.53;24.27;;;11.60;99.90;;;;;;5006225;28;20576;-63
2021/10/17 05:03:43;;;;;;;38.77;23.93;;;11.70;99.90;;;;;;5001848;28;20225;-62
2021/10/17 05:06:10;;;;;;;44.87;24.63;;;11.80;99.90;;;;;;5003849;28;20204;-62
2021/10/17 05:08:36;;;;;;;49.33;26.50;;;11.90;99.90;;;;;;5003981;28;20296;-62
2021/10/17 05:11:02;;;;;;;47.67;28.20;;;11.70;99.90;;;;;;5003232;28;20472;-62
2021/10/17 05:13:28;;;;;;;52.23;29.03;;;11.50;99.90;;;;;;5000754;28;20444;-62
2021/10/17 05:15:54;;;;;;;46.80;26.70;;;11.70;99.90;;;;;;4999570;28;20712;-62
2021/10/17 05:18:19;;;;;;;43.20;24.03;;;11.70;99.90;;;;;;5004028;28;20213;-62
2021/10/17 05:20:45;;;;;;;45.20;25.23;;;11.60;99.90;;;;;;5003332;28;20426;-62
2021/10/17 05:23:13;;;;;;;48.83;25.77;;;11.60;99.90;;;;;;4999977;28;20671;-62
2021/10/17 05:25:39;;;;;;;46.00;25.23;;;11.50;99.90;;;;;;5002009;28;20196;-62
2021/10/17 05:28:05;;;;;;;44.40;25.27;;;11.40;99.90;;;;;;5000634;28;21382;-62
2021/10/17 05:30:32;;;;;;;42.67;24.57;;;11.60;99.90;;;;;;5003840;28;20541;-62
2021/10/17 05:32:58;;;;;;;46.63;24.83;;;11.70;99.90;;;;;;5000263;28;20181;-62
2021/10/17 05:35:24;;;;;;;48.50;25.40;;;11.80;99.90;;;;;;5001499;28;21053;-62
2021/10/17 05:37:50;;;;;;;45.50;23.70;;;11.70;99.90;;;;;;5003719;28;20514;-62
2021/10/17 05:40:15;;;;;;;43.07;23.27;;;11.40;99.90;;;;;;5001120;28;20440;-62
2021/10/17 05:42:41;;;;;;;43.83;22.53;;;11.50;99.90;;;;;;5002974;28;20185;-63
2021/10/17 05:45:07;;;;;;;41.20;23.33;;;11.50;99.90;;;;;;5003118;28;20610;-61
2021/10/17 05:47:33;;;;;;;43.30;23.47;;;11.70;99.90;;;;;;4998427;28;20193;-62
2021/10/17 05:49:59;;;;;;;41.03;23.27;;;11.80;99.90;;;;;;5001118;28;20498;-61
2021/10/17 05:52:25;;;;;;;42.97;23.47;;;11.90;99.90;;;;;;5002537;28;20469;-62
2021/10/17 05:54:51;;;;;;;45.23;22.80;;;12.00;99.90;;;;;;5007279;28;20443;-61
2021/10/17 05:57:17;;;;;;;42.40;23.83;;;12.00;99.90;;;;;;5004619;28;20443;-61
2021/10/17 05:59:43;;;;;;;47.87;25.50;;;12.10;99.90;;;;;;5005611;28;20497;-61
2021/10/17 06:02:08;;;;;;;50.67;23.73;;;12.10;99.90;;;;;;5003538;28;20197;-63
2021/10/17 06:04:34;;;;;;;47.70;23.47;;;12.00;99.90;;;;;;5008571;28;20228;-61
2021/10/17 06:07:00;;;;;;;45.57;23.97;;;12.10;99.90;;;;;;5004716;28;20193;-62
2021/10/17 06:09:26;;;;;;;43.87;23.43;;;12.00;99.90;;;;;;5008146;28;20220;-62
2021/10/17 06:11:52;;;;;;;48.93;23.00;;;12.00;99.90;;;;;;5006447;28;20931;-62
2021/10/17 06:14:17;;;;;;;47.87;24.20;;;12.10;99.90;;;;;;5003411;28;20201;-62
2021/10/17 06:16:43;;;;;;;43.27;24.43;;;12.10;99.90;;;;;;5005962;28;20953;-62
2021/10/17 06:19:08;;;;;;;40.13;23.97;;;12.20;99.90;;;;;;5006122;28;20221;-63
2021/10/17 06:21:34;;;;;;;47.23;25.07;;;12.30;99.90;;;;;;5007670;28;20210;-62
2021/10/17 06:23:59;;;;;;;43.80;22.03;;;11.90;99.90;;;;;;5006114;28;20228;-63
2021/10/17 06:26:25;;;;;;;40.37;22.60;;;11.80;99.90;;;;;;5003991;28;20185;-62
2021/10/17 06:28:51;;;;;;;44.97;23.47;;;12.00;99.90;;;;;;5004801;28;20273;-63
2021/10/17 06:31:16;;;;;;;44.73;23.97;;;12.00;99.90;;;;;;5003212;28;20861;-62
2021/10/17 06:33:42;;;;;;;49.10;24.70;;;12.10;99.90;;;;;;5004071;28;20198;-62
2021/10/17 06:36:07;;;;;;;48.93;22.77;;;11.80;99.90;;;;;;5003379;28;20284;-62
2021/10/17 06:38:33;;;;;;;41.00;22.67;;;11.90;99.90;;;;;;5004567;28;20629;-62
2021/10/17 06:40:59;;;;;;;41.27;22.07;;;12.10;99.90;;;;;;5006859;28;20189;-62
2021/10/17 06:43:24;;;;;;;42.20;21.27;;;12.10;99.90;;;;;;5003330;28;20216;-62
2021/10/17 06:45:50;;;;;;;44.70;21.27;;;12.10;99.90;;;;;;5003769;28;20208;-62
2021/10/17 06:48:15;;;;;;;39.57;20.90;;;12.00;99.90;;;;;;5005326;28;20696;-61
2021/10/17 06:50:41;;;;;;;40.60;20.60;;;12.10;99.90;;;;;;5002601;28;20225;-63
2021/10/17 06:53:06;;;;;;;38.47;20.47;;;12.10;99.90;;;;;;5004818;28;20272;-63
2021/10/17 06:55:32;;;;;;;37.10;20.83;;;12.10;99.90;;;;;;5001083;28;20181;-62
2021/10/17 06:57:58;;;;;;;41.27;20.50;;;12.00;99.90;;;;;;5003783;28;20244;-62
2021/10/17 07:00:23;;;;;;;39.40;19.80;;;11.90;99.90;;;;;;5006900;28;20335;-62
2021/10/17 07:02:49;;;;;;;36.83;20.10;;;12.10;99.90;;;;;;5002030;28;20197;-62
2021/10/17 07:05:14;;;;;;;41.93;21.20;;;12.10;99.90;;;;;;4998749;28;20197;-61
2021/10/17 07:07:40;;;;;;;36.00;18.50;;;12.20;99.90;;;;;;5000705;28;20279;-61
2021/10/17 07:10:06;;;;;;;43.50;20.93;;;12.30;99.90;;;;;;5005637;28;20219;-62
2021/10/17 07:12:31;;;;;;;50.07;20.80;;;12.20;99.90;;;;;;5005152;28;20272;-63
2021/10/17 07:14:57;;;;;;;38.07;19.13;;;12.30;99.90;;;;;;5002711;28;20201;-61
2021/10/17 07:17:23;;;;;;;36.93;20.33;;;12.30;99.90;;;;;;5006491;28;20212;-61
2021/10/17 07:19:48;;;;;;;38.90;20.37;;;12.40;99.90;;;;;;5001681;28;20189;-61
2021/10/17 07:22:15;;;;;;;33.23;18.40;;;12.40;99.90;;;;;;5003856;28;20197;-61
2021/10/17 07:24:40;;;;;;;45.50;22.50;;;12.40;99.90;;;;;;5005151;28;20440;-61
2021/10/17 07:27:06;;;;;;;33.60;19.30;;;12.40;99.90;;;;;;5004408;28;20466;-63
2021/10/17 07:29:32;;;;;;;35.30;19.70;;;12.30;99.90;;;;;;5002993;28;20583;-62
2021/10/17 07:31:58;;;;;;;38.43;19.77;;;12.30;99.90;;;;;;5002597;28;20256;-62
2021/10/17 07:34:23;;;;;;;34.17;18.50;;;12.40;99.90;;;;;;5001173;28;20660;-62
2021/10/17 07:36:52;;;;;;;34.80;19.17;;;12.60;99.90;;;;;;5002606;28;20186;-62
2021/10/17 07:39:20;;;;;;;29.83;18.63;;;12.70;99.90;;;;;;5002182;28;20747;-62
2021/10/17 07:41:48;;;;;;;33.43;18.30;;;12.70;99.90;;;;;;4981175;28;20544;-61
2021/10/17 07:44:15;;;;;;;33.87;19.40;;;12.70;99.90;;;;;;5002355;28;20591;-61
2021/10/17 07:46:41;;;;;;;36.73;18.10;;;12.60;99.90;;;;;;5005565;28;20440;-62
2021/10/17 07:49:07;;;;;;;27.83;17.23;;;12.70;99.90;;;;;;4983281;28;20498;-61
2021/10/17 07:51:33;;;;;;;33.90;20.30;;;12.70;99.90;;;;;;4998247;28;20886;-61
2021/10/17 07:53:59;;;;;;;28.40;17.30;;;12.60;99.90;;;;;;5004923;28;20986;-61
2021/10/17 07:56:27;;;;;;;32.60;17.37;;;12.60;99.90;;;;;;5000830;28;20690;-62
2021/10/17 07:58:53;;;;;;;30.67;18.23;;;12.60;99.90;;;;;;4987170;28;20628;-58
2021/10/17 08:01:19;;;;;;;40.13;18.87;;;12.70;99.90;;;;;;4998172;28;20760;-59
2021/10/17 08:03:45;;;;;;;27.87;18.00;;;12.70;99.90;;;;;;5004193;28;20220;-59
2021/10/17 08:06:10;;;;;;;34.37;16.53;;;12.70;99.90;;;;;;4995433;28;20542;-60
2021/10/17 08:08:37;;;;;;;29.30;17.27;;;12.70;99.90;;;;;;4985765;28;20244;-60
2021/10/17 08:11:03;;;;;;;34.57;19.87;;;12.70;99.90;;;;;;5001509;28;20621;-60
2021/10/17 08:13:29;;;;;;;27.73;17.30;;;12.50;99.90;;;;;;5003931;28;20480;-61
2021/10/17 08:15:55;;;;;;;34.63;18.83;;;12.40;99.90;;;;;;5003802;28;20248;-61
2021/10/17 08:18:22;;;;;;;29.90;16.97;;;12.40;99.90;;;;;;4996475;28;21539;-59
2021/10/17 08:20:48;;;;;;;30.17;19.30;;;12.50;99.90;;;;;;5004175;28;20456;-59
2021/10/17 08:23:14;;;;;;;34.00;17.70;;;12.40;99.90;;;;;;4995021;28;20466;-59
2021/10/17 08:25:40;;;;;;;30.57;19.17;;;12.40;99.90;;;;;;4997553;28;20456;-60
2021/10/17 08:28:06;;;;;;;27.67;18.57;;;12.20;99.90;;;;;;5002452;28;20680;-59
2021/10/17 08:30:32;;;;;;;30.97;17.97;;;12.30;99.90;;;;;;5001239;28;20479;-59
2021/10/17 08:32:57;;;;;;;28.33;17.37;;;12.30;99.90;;;;;;5004431;28;20201;-60
2021/10/17 08:35:23;;;;;;;28.73;17.33;;;12.40;99.90;;;;;;5000655;28;20452;-60
2021/10/17 08:37:49;;;;;;;26.03;17.10;;;12.40;99.90;;;;;;5003601;28;20637;-60
2021/10/17 08:40:14;;;;;;;28.40;18.30;;;12.50;99.90;;;;;;5004473;28;20193;-60
2021/10/17 08:42:41;;;;;;;25.93;16.67;;;12.50;99.90;;;;;;5004219;28;20219;-59
2021/10/17 08:45:07;;;;;;;23.70;16.80;;;12.60;99.90;;;;;;4980734;28;20211;-59
2021/10/17 08:47:34;;;;;;;29.30;17.27;;;12.50;99.90;;;;;;5003195;28;20432;-59
2021/10/17 08:50:00;;;;;;;34.10;19.00;;;12.60;99.90;;;;;;5001735;28;20602;-58
2021/10/17 08:52:26;;;;;;;31.07;19.63;;;12.60;99.90;;;;;;5004703;28;20443;-60
2021/10/17 08:54:52;;;;;;;27.00;17.53;;;12.60;99.90;;;;;;5004478;28;20451;-59
2021/10/17 08:57:17;;;;;;;25.90;16.90;;;12.50;99.90;;;;;;5006156;28;20668;-61
2021/10/17 08:59:51;;;;;;;28.90;17.90;;;12.60;99.90;;;;;;5003500;28;20676;-60
2021/10/17 09:02:19;;;;;;;29.93;18.07;;;12.70;99.90;;;;;;5007360;28;20887;-61
2021/10/17 09:05:06;;;;;;;26.97;16.50;;;12.70;99.90;;;;;;5011362;28;20471;-61
2021/10/17 09:07:32;;;;;;;24.93;17.10;;;12.50;99.90;;;;;;5001861;28;20531;-60
2021/10/17 09:10:14;;;;;;;25.73;17.70;;;12.20;99.90;;;;;;5006570;28;20606;-60
2021/10/17 09:12:42;;;;;;;24.10;17.40;;;12.40;99.90;;;;;;5001938;28;20181;-60
2021/10/17 09:15:25;;;;;;;28.63;16.90;;;12.40;99.90;;;;;;4998396;28;20436;-59
2021/10/17 09:18:20;;;;;;;29.13;17.53;;;12.50;99.90;;;;;;5002824;28;20525;-60
2021/10/17 09:20:46;;;;;;;28.90;18.50;;;12.70;99.90;;;;;;4998798;28;20785;-60
2021/10/17 09:23:17;;;;;;;27.77;17.17;;;12.60;99.90;;;;;;4988832;28;20547;-60
2021/10/17 09:25:43;;;;;;;26.13;16.87;;;12.70;99.90;;;;;;4999155;28;20236;-59
2021/10/17 09:28:27;;;;;;;25.53;17.23;;;12.50;99.90;;;;;;5001024;28;21037;-59
2021/10/17 09:31:03;;;;;;;24.60;16.40;;;12.70;99.90;;;;;;5006139;28;20495;-59
2021/10/17 09:33:29;;;;;;;27.13;17.90;;;12.70;99.90;;;;;;5007550;28;20432;-60
2021/10/17 09:35:55;;;;;;;24.57;17.93;;;12.60;99.90;;;;;;5004585;28;20437;-62
2021/10/17 09:38:33;;;;;;;26.67;17.50;;;12.70;99.90;;;;;;5005748;28;20456;-60
2021/10/17 09:41:24;;;;;;;25.83;16.43;;;12.70;99.90;;;;;;5007078;28;20448;-60
2021/10/17 09:43:56;;;;;;;23.47;17.10;;;12.70;99.90;;;;;;5002456;28;20460;-60
2021/10/17 09:46:23;;;;;;;24.63;16.37;;;12.70;99.90;;;;;;5004692;28;20496;-61
2021/10/17 09:48:50;;;;;;;29.73;16.97;;;12.80;99.90;;;;;;5005317;28;20492;-60
2021/10/17 09:51:33;;;;;;;26.33;16.10;;;12.90;99.90;;;;;;5005650;28;20463;-60
2021/10/17 09:54:00;;;;;;;22.83;16.00;;;12.90;99.90;;;;;;5004149;28;20981;-60
2021/10/17 09:56:38;;;;;;;27.13;17.87;;;12.90;99.90;;;;;;5006986;28;20448;-60
2021/10/17 09:59:10;;;;;;;24.47;17.30;;;12.70;99.90;;;;;;5008828;28;20958;-60
2021/10/17 10:01:38;;;;;;;23.03;16.23;;;12.70;99.90;;;;;;4988079;28;20440;-60
2021/10/17 10:04:06;;;;;;;27.57;18.07;;;12.80;99.90;;;;;;5005415;28;20829;-60
2021/10/17 10:06:33;;;;;;;27.03;17.93;;;12.70;99.90;;;;;;5002241;28;20447;-60
2021/10/17 10:09:01;;;;;;;27.40;18.43;;;12.70;99.90;;;;;;5003034;28;20931;-60
2021/10/17 10:11:28;;;;;;;26.40;17.73;;;12.70;99.90;;;;;;5004514;28;20482;-60
2021/10/17 10:13:57;;;;;;;27.93;18.70;;;12.70;99.90;;;;;;4986412;28;20497;-60
2021/10/17 10:16:25;;;;;;;29.37;18.23;;;12.90;99.90;;;;;;5006173;28;20454;-59
2021/10/17 10:18:53;;;;;;;27.80;17.20;;;12.90;99.90;;;;;;5006997;28;20448;-59
2021/10/17 10:21:23;;;;;;;31.73;18.30;;;13.00;99.90;;;;;;5005432;28;20475;-59
2021/10/17 10:23:55;;;;;;;26.50;17.30;;;13.10;99.90;;;;;;5002584;28;20502;-59
2021/10/17 10:26:23;;;;;;;26.53;16.80;;;13.10;99.90;;;;;;5007260;28;21160;-59
2021/10/17 10:28:50;;;;;;;28.17;17.70;;;13.20;99.90;;;;;;5002989;28;20475;-59
2021/10/17 10:31:40;;;;;;;29.43;17.37;;;13.30;99.90;;;;;;5002603;28;20472;-59
2021/10/17 10:34:08;;;;;;;23.87;17.47;;;13.20;99.90;;;;;;5004567;28;20887;-59
2021/10/17 10:36:45;;;;;;;24.47;15.67;;;13.00;99.90;;;;;;4987261;28;20787;-59
2021/10/17 10:39:13;;;;;;;27.30;18.10;;;12.90;99.90;;;;;;5000708;28;20526;-59
2021/10/17 10:42:03;;;;;;;19.13;14.60;;;13.00;99.90;;;;;;5003247;28;20980;-60
2021/10/17 10:44:31;;;;;;;27.90;16.10;;;12.90;99.90;;;;;;5007527;28;20478;-60
2021/10/17 10:47:18;;;;;;;21.13;14.57;;;12.80;99.90;;;;;;5003106;28;20436;-60
2021/10/17 10:49:48;;;;;;;21.13;13.70;;;12.70;99.90;;;;;;5006984;28;20472;-60
2021/10/17 10:52:29;;;;;;;18.80;12.43;;;12.70;99.90;;;;;;5005615;28;20511;-60
2021/10/17 10:54:58;;;;;;;18.23;12.07;;;12.60;99.90;;;;;;5003380;28;20519;-60
2021/10/17 10:57:25;;;;;;;19.93;13.20;;;12.60;99.90;;;;;;4990147;28;20490;-59
2021/10/17 11:00:15;;;;;;;16.90;11.83;;;12.70;99.90;;;;;;5007380;28;20443;-60
2021/10/17 11:03:13;;;;;;;22.70;16.67;;;12.50;99.90;;;;;;5007952;28;20440;-61
2021/10/17 11:05:40;;;;;;;22.80;13.90;;;12.50;99.90;;;;;;5007379;28;20519;-59
2021/10/17 11:08:15;;;;;;;20.23;14.50;;;12.40;99.90;;;;;;5006271;28;20834;-60
2021/10/17 11:10:43;;;;;;;21.13;13.20;;;12.50;99.90;;;;;;5007400;28;20467;-60
2021/10/17 11:13:11;;;;;;;18.30;12.47;;;12.50;99.90;;;;;;5004948;28;20445;-59
2021/10/17 11:15:39;;;;;;;16.87;11.57;;;12.60;99.90;;;;;;5005073;28;20449;-59
2021/10/17 11:18:11;;;;;;;18.17;12.47;;;12.50;99.90;;;;;;5008631;28;20513;-59
2021/10/17 11:20:42;;;;;;;20.43;12.50;;;12.40;99.90;;;;;;5003137;28;20433;-60
2021/10/17 11:23:25;;;;;;;19.87;13.83;;;12.20;99.90;;;;;;5000089;28;20838;-60
2021/10/17 11:25:58;;;;;;;18.30;12.30;;;12.20;99.90;;;;;;5006435;28;20758;-59
2021/10/17 11:28:26;;;;;;;19.00;13.30;;;12.30;99.90;;;;;;4991377;28;21010;-60
2021/10/17 11:31:23;;;;;;;19.20;11.33;;;12.30;99.90;;;;;;5006918;28;20526;-60
2021/10/17 11:33:49;;;;;;;20.77;12.20;;;12.40;99.90;;;;;;4971047;28;20444;-60
2021/10/17 11:36:17;;;;;;;21.57;13.43;;;12.30;99.90;;;;;;5002857;28;20449;-60
2021/10/17 11:38:44;;;;;;;24.53;13.47;;;12.20;99.90;;;;;;5002649;28;20515;-60
2021/10/17 11:41:16;;;;;;;20.30;14.23;;;12.10;99.90;;;;;;5004101;28;20835;-60
2021/10/17 11:43:46;;;;;;;21.07;14.27;;;11.90;99.90;;;;;;4993258;28;20475;-60
2021/10/17 11:46:27;;;;;;;18.47;13.57;;;12.00;99.90;;;;;;4989372;28;20586;-60
2021/10/17 11:49:01;;;;;;;22.67;15.20;;;12.20;99.90;;;;;;4988727;28;20448;-62
2021/10/17 11:51:27;;;;;;;20.60;13.30;;;12.30;99.90;;;;;;5005438;28;20887;-61
2021/10/17 11:53:59;;;;;;;24.17;15.10;;;12.20;99.90;;;;;;5005508;28;20450;-60
2021/10/17 11:56:24;;;;;;;25.53;15.40;;;12.40;99.90;;;;;;5002989;28;20201;-60
2021/10/17 11:58:50;;;;;;;23.50;15.40;;;12.60;99.90;;;;;;5004500;28;20462;-59
2021/10/17 12:01:17;;;;;;;23.87;15.83;;;12.40;99.90;;;;;;5003682;28;20228;-60
2021/10/17 12:03:49;;;;;;;22.90;15.00;;;12.40;99.90;;;;;;5006077;28;20256;-59
2021/10/17 12:06:17;;;;;;;25.70;16.57;;;12.50;99.90;;;;;;5007004;28;20446;-60
2021/10/17 12:08:57;;;;;;;23.43;16.47;;;12.40;99.90;;;;;;5003480;28;20459;-60
2021/10/17 12:11:24;;;;;;;24.60;16.07;;;12.50;99.90;;;;;;5003712;28;20574;-61
2021/10/17 12:13:51;;;;;;;28.87;17.97;;;12.50;99.90;;;;;;5004321;28;20452;-61
2021/10/17 12:16:29;;;;;;;29.47;17.17;;;12.50;99.90;;;;;;5003383;28;20476;-60
2021/10/17 12:19:05;;;;;;;29.33;17.80;;;12.30;99.90;;;;;;5001057;28;20471;-61
2021/10/17 12:21:33;;;;;;;36.33;18.93;;;12.10;99.90;;;;;;4992493;28;20448;-61
2021/10/17 12:24:00;;;;;;;33.30;19.50;;;11.80;99.90;;;;;;4993234;28;20610;-59
2021/10/17 12:26:29;;;;;;;38.50;19.77;;;11.60;99.90;;;;;;4981313;28;20467;-60
2021/10/17 12:29:15;;;;;;;28.77;19.30;;;11.60;99.90;;;;;;5001463;28;20491;-60
2021/10/17 12:31:43;;;;;;;42.50;21.37;;;11.60;99.90;;;;;;5004185;28;20843;-60